sensor_id;sensor_type;location;lat;lon;timestamp;temperature;humidity
13529;DHT22;4419;50.882;4.718;2022-07-17T00:00:25;18.40;42.20
13529;DHT22;4419;50.882;4.718;2022-07-17T00:02:51;18.40;42.70
13529;DHT22;4419;50.882;4.718;2022-07-17T00:05:16;18.30;42.90
13529;DHT22;4419;50.882;4.718;2022-07-17T00:07:42;18.40;43.30
13529;DHT22;4419;50.882;4.718;2022-07-17T00:10:08;18.20;43.90
13529;DHT22;4419;50.882;4.718;2022-07-17T00:12:34;18.10;44.50
13529;DHT22;4419;50.882;4.718;2022-07-17T00:14:59;18.20;44.90
13529;DHT22;4419;50.882;4.718;2022-07-17T00:17:25;18.10;45.30
13529;DHT22;4419;50.882;4.718;2022-07-17T00:19:50;18.00;46.30
13529;DHT22;4419;50.882;4.718;2022-07-17T00:22:16;18.10;47.20
13529;DHT22;4419;50.882;4.718;2022-07-17T00:24:42;18.00;47.80
13529;DHT22;4419;50.882;4.718;2022-07-17T00:27:07;18.00;48.50
13529;DHT22;4419;50.882;4.718;2022-07-17T00:29:33;17.90;49.30
13529;DHT22;4419;50.882;4.718;2022-07-17T00:31:58;17.80;51.50
13529;DHT22;4419;50.882;4.718;2022-07-17T00:34:24;17.70;53.80
13529;DHT22;4419;50.882;4.718;2022-07-17T00:36:49;17.70;54.60
13529;DHT22;4419;50.882;4.718;2022-07-17T00:39:15;17.60;56.00
13529;DHT22;4419;50.882;4.718;2022-07-17T00:41:43;17.70;57.10
13529;DHT22;4419;50.882;4.718;2022-07-17T00:44:09;17.80;58.00
13529;DHT22;4419;50.882;4.718;2022-07-17T00:46:35;17.80;58.60
13529;DHT22;4419;50.882;4.718;2022-07-17T00:49:01;17.70;60.60
13529;DHT22;4419;50.882;4.718;2022-07-17T00:51:28;17.70;63.50
13529;DHT22;4419;50.882;4.718;2022-07-17T00:53:53;17.70;65.80
13529;DHT22;4419;50.882;4.718;2022-07-17T00:56:20;17.70;65.70
13529;DHT22;4419;50.882;4.718;2022-07-17T00:58:46;17.60;67.60
13529;DHT22;4419;50.882;4.718;2022-07-17T01:01:13;17.60;68.40
13529;DHT22;4419;50.882;4.718;2022-07-17T01:03:39;17.60;70.40
13529;DHT22;4419;50.882;4.718;2022-07-17T01:06:04;17.70;69.80
13529;DHT22;4419;50.882;4.718;2022-07-17T01:08:31;17.70;71.70
13529;DHT22;4419;50.882;4.718;2022-07-17T01:10:57;17.70;73.90
13529;DHT22;4419;50.882;4.718;2022-07-17T01:13:22;17.50;73.60
13529;DHT22;4419;50.882;4.718;2022-07-17T01:15:48;17.70;71.50
13529;DHT22;4419;50.882;4.718;2022-07-17T01:18:14;17.70;70.30
13529;DHT22;4419;50.882;4.718;2022-07-17T01:20:41;17.60;71.50
13529;DHT22;4419;50.882;4.718;2022-07-17T01:23:07;17.70;71.80
13529;DHT22;4419;50.882;4.718;2022-07-17T01:25:33;17.70;77.60
13529;DHT22;4419;50.882;4.718;2022-07-17T01:28:00;17.70;84.20
13529;DHT22;4419;50.882;4.718;2022-07-17T01:30:25;17.60;85.90
13529;DHT22;4419;50.882;4.718;2022-07-17T01:32:51;17.50;90.50
13529;DHT22;4419;50.882;4.718;2022-07-17T01:35:17;17.50;90.40
13529;DHT22;4419;50.882;4.718;2022-07-17T01:37:43;17.40;93.40
13529;DHT22;4419;50.882;4.718;2022-07-17T01:40:09;17.20;95.30
13529;DHT22;4419;50.882;4.718;2022-07-17T01:42:38;17.30;97.90
13529;DHT22;4419;50.882;4.718;2022-07-17T01:45:04;17.20;98.90
13529;DHT22;4419;50.882;4.718;2022-07-17T01:47:30;17.20;99.90
13529;DHT22;4419;50.882;4.718;2022-07-17T01:49:56;17.20;99.90
13529;DHT22;4419;50.882;4.718;2022-07-17T01:52:23;17.10;99.90
13529;DHT22;4419;50.882;4.718;2022-07-17T01:54:49;17.00;99.90
13529;DHT22;4419;50.882;4.718;2022-07-17T01:57:14;17.10;99.90
13529;DHT22;4419;50.882;4.718;2022-07-17T01:59:40;17.10;99.90
13529;DHT22;4419;50.882;4.718;2022-07-17T02:02:06;17.00;99.90
13529;DHT22;4419;50.882;4.718;2022-07-17T02:04:32;17.00;99.90
13529;DHT22;4419;50.882;4.718;2022-07-17T02:06:58;17.10;99.90
13529;DHT22;4419;50.882;4.718;2022-07-17T02:09:24;16.90;99.90
13529;DHT22;4419;50.882;4.718;2022-07-17T02:11:50;16.90;99.90
13529;DHT22;4419;50.882;4.718;2022-07-17T02:14:15;16.90;99.90
13529;DHT22;4419;50.882;4.718;2022-07-17T02:16:41;16.90;99.90
13529;DHT22;4419;50.882;4.718;2022-07-17T02:19:07;16.90;99.90
13529;DHT22;4419;50.882;4.718;2022-07-17T02:21:32;16.90;99.90
13529;DHT22;4419;50.882;4.718;2022-07-17T02:23:58;16.70;99.90
13529;DHT22;4419;50.882;4.718;2022-07-17T02:26:24;16.70;99.90
13529;DHT22;4419;50.882;4.718;2022-07-17T02:28:49;16.70;99.90
13529;DHT22;4419;50.882;4.718;2022-07-17T02:31:15;16.70;99.90
13529;DHT22;4419;50.882;4.718;2022-07-17T02:33:40;16.80;99.90
13529;DHT22;4419;50.882;4.718;2022-07-17T02:36:06;16.80;99.90
13529;DHT22;4419;50.882;4.718;2022-07-17T02:38:32;16.80;99.90
13529;DHT22;4419;50.882;4.718;2022-07-17T02:40:57;16.60;99.90
13529;DHT22;4419;50.882;4.718;2022-07-17T02:43:23;16.50;99.90
13529;DHT22;4419;50.882;4.718;2022-07-17T02:45:49;16.50;99.90
13529;DHT22;4419;50.882;4.718;2022-07-17T02:48:14;16.50;99.90
13529;DHT22;4419;50.882;4.718;2022-07-17T02:50:40;16.50;99.90
13529;DHT22;4419;50.882;4.718;2022-07-17T02:53:05;16.50;99.90
13529;DHT22;4419;50.882;4.718;2022-07-17T02:55:31;16.50;99.90
13529;DHT22;4419;50.882;4.718;2022-07-17T02:57:57;16.30;99.90
13529;DHT22;4419;50.882;4.718;2022-07-17T03:00:22;16.30;99.90
13529;DHT22;4419;50.882;4.718;2022-07-17T03:02:48;16.50;99.90
13529;DHT22;4419;50.882;4.718;2022-07-17T03:05:14;16.40;99.90
13529;DHT22;4419;50.882;4.718;2022-07-17T03:07:40;16.40;99.90
13529;DHT22;4419;50.882;4.718;2022-07-17T03:10:06;16.40;99.90
13529;DHT22;4419;50.882;4.718;2022-07-17T03:12:32;16.40;99.90
13529;DHT22;4419;50.882;4.718;2022-07-17T03:14:58;16.30;99.90
13529;DHT22;4419;50.882;4.718;2022-07-17T03:17:24;16.30;99.90
13529;DHT22;4419;50.882;4.718;2022-07-17T03:19:49;16.30;99.90
13529;DHT22;4419;50.882;4.718;2022-07-17T03:22:15;16.30;99.90
13529;DHT22;4419;50.882;4.718;2022-07-17T03:24:41;16.20;99.90
13529;DHT22;4419;50.882;4.718;2022-07-17T03:27:06;16.20;99.90
13529;DHT22;4419;50.882;4.718;2022-07-17T03:29:32;16.10;99.90
13529;DHT22;4419;50.882;4.718;2022-07-17T03:31:58;16.10;99.90
13529;DHT22;4419;50.882;4.718;2022-07-17T03:34:24;16.10;99.90
13529;DHT22;4419;50.882;4.718;2022-07-17T03:36:49;16.00;99.90
13529;DHT22;4419;50.882;4.718;2022-07-17T03:39:15;16.00;99.90
13529;DHT22;4419;50.882;4.718;2022-07-17T03:41:40;16.20;99.90
13529;DHT22;4419;50.882;4.718;2022-07-17T03:44:06;16.20;99.90
13529;DHT22;4419;50.882;4.718;2022-07-17T03:46:31;16.10;99.90
13529;DHT22;4419;50.882;4.718;2022-07-17T03:48:57;16.20;99.90
13529;DHT22;4419;50.882;4.718;2022-07-17T03:51:23;16.00;99.90
13529;DHT22;4419;50.882;4.718;2022-07-17T03:53:48;15.90;99.90
13529;DHT22;4419;50.882;4.718;2022-07-17T03:56:14;15.90;99.90
13529;DHT22;4419;50.882;4.718;2022-07-17T03:58:40;15.80;99.90
13529;DHT22;4419;50.882;4.718;2022-07-17T04:01:05;15.80;99.90
13529;DHT22;4419;50.882;4.718;2022-07-17T04:03:31;15.70;99.90
13529;DHT22;4419;50.882;4.718;2022-07-17T04:05:56;15.40;99.90
13529;DHT22;4419;50.882;4.718;2022-07-17T04:08:22;15.50;99.90
13529;DHT22;4419;50.882;4.718;2022-07-17T04:10:48;15.50;99.90
13529;DHT22;4419;50.882;4.718;2022-07-17T04:13:13;15.50;99.90
13529;DHT22;4419;50.882;4.718;2022-07-17T04:15:39;15.50;99.90
13529;DHT22;4419;50.882;4.718;2022-07-17T04:18:26;15.60;99.90
13529;DHT22;4419;50.882;4.718;2022-07-17T04:20:52;15.60;99.90
13529;DHT22;4419;50.882;4.718;2022-07-17T04:23:18;15.60;99.90
13529;DHT22;4419;50.882;4.718;2022-07-17T04:25:44;15.60;99.90
13529;DHT22;4419;50.882;4.718;2022-07-17T04:28:10;15.70;99.90
13529;DHT22;4419;50.882;4.718;2022-07-17T04:30:36;15.70;99.90
13529;DHT22;4419;50.882;4.718;2022-07-17T04:33:02;15.70;99.90
13529;DHT22;4419;50.882;4.718;2022-07-17T04:35:28;15.60;99.90
13529;DHT22;4419;50.882;4.718;2022-07-17T04:37:53;15.70;99.90
13529;DHT22;4419;50.882;4.718;2022-07-17T04:40:19;15.50;99.90
13529;DHT22;4419;50.882;4.718;2022-07-17T04:42:45;15.60;99.90
13529;DHT22;4419;50.882;4.718;2022-07-17T04:45:10;15.70;99.90
13529;DHT22;4419;50.882;4.718;2022-07-17T04:47:36;15.70;99.90
13529;DHT22;4419;50.882;4.718;2022-07-17T04:50:02;15.60;99.90
13529;DHT22;4419;50.882;4.718;2022-07-17T04:52:28;15.40;99.90
13529;DHT22;4419;50.882;4.718;2022-07-17T04:54:53;15.40;99.90
13529;DHT22;4419;50.882;4.718;2022-07-17T04:57:19;15.50;99.90
13529;DHT22;4419;50.882;4.718;2022-07-17T04:59:45;15.50;99.90
13529;DHT22;4419;50.882;4.718;2022-07-17T05:02:10;15.60;99.90
13529;DHT22;4419;50.882;4.718;2022-07-17T05:04:36;15.70;99.90
13529;DHT22;4419;50.882;4.718;2022-07-17T05:07:01;15.80;99.90
13529;DHT22;4419;50.882;4.718;2022-07-17T05:09:27;15.80;99.90
13529;DHT22;4419;50.882;4.718;2022-07-17T05:11:53;15.80;99.90
13529;DHT22;4419;50.882;4.718;2022-07-17T05:14:18;15.90;99.90
13529;DHT22;4419;50.882;4.718;2022-07-17T05:16:44;15.80;99.90
13529;DHT22;4419;50.882;4.718;2022-07-17T05:19:09;15.70;99.90
13529;DHT22;4419;50.882;4.718;2022-07-17T05:21:35;15.70;99.90
13529;DHT22;4419;50.882;4.718;2022-07-17T05:24:00;15.80;99.90
13529;DHT22;4419;50.882;4.718;2022-07-17T05:26:26;15.80;99.90
13529;DHT22;4419;50.882;4.718;2022-07-17T05:28:52;15.80;99.90
13529;DHT22;4419;50.882;4.718;2022-07-17T05:31:18;15.80;99.90
13529;DHT22;4419;50.882;4.718;2022-07-17T05:33:44;15.90;99.90
13529;DHT22;4419;50.882;4.718;2022-07-17T05:36:09;15.90;99.90
13529;DHT22;4419;50.882;4.718;2022-07-17T05:38:35;16.00;99.90
13529;DHT22;4419;50.882;4.718;2022-07-17T05:41:00;16.10;99.90
13529;DHT22;4419;50.882;4.718;2022-07-17T05:43:26;16.10;99.90
13529;DHT22;4419;50.882;4.718;2022-07-17T05:45:58;16.20;99.90
13529;DHT22;4419;50.882;4.718;2022-07-17T05:48:29;16.20;99.90
13529;DHT22;4419;50.882;4.718;2022-07-17T05:50:55;16.40;99.90
13529;DHT22;4419;50.882;4.718;2022-07-17T05:53:21;16.40;99.90
13529;DHT22;4419;50.882;4.718;2022-07-17T05:55:46;16.40;99.90
13529;DHT22;4419;50.882;4.718;2022-07-17T05:58:12;16.50;99.90
13529;DHT22;4419;50.882;4.718;2022-07-17T06:00:38;16.60;99.90
13529;DHT22;4419;50.882;4.718;2022-07-17T06:03:04;16.60;99.90
13529;DHT22;4419;50.882;4.718;2022-07-17T06:05:29;16.80;99.90
13529;DHT22;4419;50.882;4.718;2022-07-17T06:07:55;16.80;99.90
13529;DHT22;4419;50.882;4.718;2022-07-17T06:10:22;16.90;99.90
13529;DHT22;4419;50.882;4.718;2022-07-17T06:12:48;17.10;99.90
13529;DHT22;4419;50.882;4.718;2022-07-17T06:15:15;17.20;98.40
13529;DHT22;4419;50.882;4.718;2022-07-17T06:17:41;17.30;98.40
13529;DHT22;4419;50.882;4.718;2022-07-17T06:20:06;17.30;96.80
13529;DHT22;4419;50.882;4.718;2022-07-17T06:22:32;17.40;97.70
13529;DHT22;4419;50.882;4.718;2022-07-17T06:24:58;17.40;94.40
13529;DHT22;4419;50.882;4.718;2022-07-17T06:27:23;17.50;93.30
13529;DHT22;4419;50.882;4.718;2022-07-17T06:29:49;17.50;92.60
13529;DHT22;4419;50.882;4.718;2022-07-17T06:32:15;17.60;90.90
13529;DHT22;4419;50.882;4.718;2022-07-17T06:34:40;17.60;88.40
13529;DHT22;4419;50.882;4.718;2022-07-17T06:37:06;17.60;92.20
13529;DHT22;4419;50.882;4.718;2022-07-17T06:39:32;17.70;92.50
13529;DHT22;4419;50.882;4.718;2022-07-17T06:41:57;17.90;86.50
13529;DHT22;4419;50.882;4.718;2022-07-17T06:44:23;17.90;82.00
13529;DHT22;4419;50.882;4.718;2022-07-17T06:46:49;18.00;83.30
13529;DHT22;4419;50.882;4.718;2022-07-17T06:49:14;18.20;79.00
13529;DHT22;4419;50.882;4.718;2022-07-17T06:51:40;18.20;76.70
13529;DHT22;4419;50.882;4.718;2022-07-17T06:54:05;18.30;75.90
13529;DHT22;4419;50.882;4.718;2022-07-17T06:56:31;18.40;74.50
13529;DHT22;4419;50.882;4.718;2022-07-17T06:58:57;18.40;79.10
13529;DHT22;4419;50.882;4.718;2022-07-17T07:01:22;18.60;74.10
13529;DHT22;4419;50.882;4.718;2022-07-17T07:03:48;18.80;70.60
13529;DHT22;4419;50.882;4.718;2022-07-17T07:06:14;18.80;69.00
13529;DHT22;4419;50.882;4.718;2022-07-17T07:08:39;18.80;66.90
13529;DHT22;4419;50.882;4.718;2022-07-17T07:11:05;18.90;67.50
13529;DHT22;4419;50.882;4.718;2022-07-17T07:13:31;19.10;64.90
13529;DHT22;4419;50.882;4.718;2022-07-17T07:15:57;19.20;63.20
13529;DHT22;4419;50.882;4.718;2022-07-17T07:18:23;19.20;62.90
13529;DHT22;4419;50.882;4.718;2022-07-17T07:20:48;19.20;61.80
13529;DHT22;4419;50.882;4.718;2022-07-17T07:23:14;19.20;60.60
13529;DHT22;4419;50.882;4.718;2022-07-17T07:25:40;19.20;61.10
13529;DHT22;4419;50.882;4.718;2022-07-17T07:28:05;19.20;61.80
13529;DHT22;4419;50.882;4.718;2022-07-17T07:30:31;19.40;60.30
13529;DHT22;4419;50.882;4.718;2022-07-17T07:32:56;19.50;60.10
13529;DHT22;4419;50.882;4.718;2022-07-17T07:35:22;19.70;57.60
13529;DHT22;4419;50.882;4.718;2022-07-17T07:37:48;19.70;55.60
13529;DHT22;4419;50.882;4.718;2022-07-17T07:40:13;19.80;56.30
13529;DHT22;4419;50.882;4.718;2022-07-17T07:42:39;19.80;54.60
13529;DHT22;4419;50.882;4.718;2022-07-17T07:45:05;19.90;55.10
13529;DHT22;4419;50.882;4.718;2022-07-17T07:47:31;20.00;52.80
13529;DHT22;4419;50.882;4.718;2022-07-17T07:49:56;20.10;52.20
13529;DHT22;4419;50.882;4.718;2022-07-17T07:52:22;20.20;50.30
13529;DHT22;4419;50.882;4.718;2022-07-17T07:54:48;20.30;50.10
13529;DHT22;4419;50.882;4.718;2022-07-17T07:57:14;20.40;48.40
13529;DHT22;4419;50.882;4.718;2022-07-17T07:59:40;20.30;48.30
13529;DHT22;4419;50.882;4.718;2022-07-17T08:02:05;20.40;48.20
13529;DHT22;4419;50.882;4.718;2022-07-17T08:04:31;20.50;49.90
13529;DHT22;4419;50.882;4.718;2022-07-17T08:06:56;20.70;50.60
13529;DHT22;4419;50.882;4.718;2022-07-17T08:09:22;20.80;49.90
13529;DHT22;4419;50.882;4.718;2022-07-17T08:11:48;20.80;51.50
13529;DHT22;4419;50.882;4.718;2022-07-17T08:14:14;20.80;50.20
13529;DHT22;4419;50.882;4.718;2022-07-17T08:16:39;20.80;50.50
13529;DHT22;4419;50.882;4.718;2022-07-17T08:19:05;20.90;51.00
13529;DHT22;4419;50.882;4.718;2022-07-17T08:21:31;20.80;50.80
13529;DHT22;4419;50.882;4.718;2022-07-17T08:23:57;20.80;51.80
13529;DHT22;4419;50.882;4.718;2022-07-17T08:26:22;20.80;52.20
13529;DHT22;4419;50.882;4.718;2022-07-17T08:28:48;20.90;52.50
13529;DHT22;4419;50.882;4.718;2022-07-17T08:31:13;21.00;52.30
13529;DHT22;4419;50.882;4.718;2022-07-17T08:33:39;21.10;50.60
13529;DHT22;4419;50.882;4.718;2022-07-17T08:36:05;21.20;49.30
13529;DHT22;4419;50.882;4.718;2022-07-17T08:38:30;21.30;48.10
13529;DHT22;4419;50.882;4.718;2022-07-17T08:40:56;21.40;47.00
13529;DHT22;4419;50.882;4.718;2022-07-17T08:43:24;21.50;46.20
13529;DHT22;4419;50.882;4.718;2022-07-17T08:45:50;21.50;45.40
13529;DHT22;4419;50.882;4.718;2022-07-17T08:48:16;21.30;44.40
13529;DHT22;4419;50.882;4.718;2022-07-17T08:50:42;21.40;43.60
13529;DHT22;4419;50.882;4.718;2022-07-17T08:53:08;21.40;42.60
13529;DHT22;4419;50.882;4.718;2022-07-17T08:55:35;21.50;41.30
13529;DHT22;4419;50.882;4.718;2022-07-17T08:58:01;21.60;41.10
13529;DHT22;4419;50.882;4.718;2022-07-17T09:00:27;21.80;40.20
13529;DHT22;4419;50.882;4.718;2022-07-17T09:02:54;21.80;40.60
13529;DHT22;4419;50.882;4.718;2022-07-17T09:05:20;22.00;40.90
13529;DHT22;4419;50.882;4.718;2022-07-17T09:07:46;22.10;39.10
13529;DHT22;4419;50.882;4.718;2022-07-17T09:10:13;22.30;38.60
13529;DHT22;4419;50.882;4.718;2022-07-17T09:12:38;22.20;39.70
13529;DHT22;4419;50.882;4.718;2022-07-17T09:15:13;22.30;38.90
13529;DHT22;4419;50.882;4.718;2022-07-17T09:17:46;22.40;39.60
13529;DHT22;4419;50.882;4.718;2022-07-17T09:20:13;22.50;39.50
13529;DHT22;4419;50.882;4.718;2022-07-17T09:22:39;22.70;39.40
13529;DHT22;4419;50.882;4.718;2022-07-17T09:25:04;22.90;38.70
13529;DHT22;4419;50.882;4.718;2022-07-17T09:27:31;22.90;38.50
13529;DHT22;4419;50.882;4.718;2022-07-17T09:32:30;23.00;37.10
13529;DHT22;4419;50.882;4.718;2022-07-17T09:34:57;23.00;37.60
13529;DHT22;4419;50.882;4.718;2022-07-17T09:37:23;23.10;37.80
13529;DHT22;4419;50.882;4.718;2022-07-17T09:39:49;22.90;36.50
13529;DHT22;4419;50.882;4.718;2022-07-17T09:42:26;22.90;36.40
13529;DHT22;4419;50.882;4.718;2022-07-17T09:44:56;23.10;37.30
13529;DHT22;4419;50.882;4.718;2022-07-17T09:47:25;23.20;38.20
13529;DHT22;4419;50.882;4.718;2022-07-17T09:49:52;23.40;38.80
13529;DHT22;4419;50.882;4.718;2022-07-17T09:52:19;23.80;37.30
13529;DHT22;4419;50.882;4.718;2022-07-17T09:54:44;23.90;36.10
13529;DHT22;4419;50.882;4.718;2022-07-17T09:57:12;23.90;35.90
13529;DHT22;4419;50.882;4.718;2022-07-17T09:59:39;23.90;35.30
13529;DHT22;4419;50.882;4.718;2022-07-17T10:02:05;24.00;35.60
13529;DHT22;4419;50.882;4.718;2022-07-17T10:04:32;24.20;35.50
13529;DHT22;4419;50.882;4.718;2022-07-17T10:06:58;24.40;35.20
13529;DHT22;4419;50.882;4.718;2022-07-17T10:09:23;24.50;34.20
13529;DHT22;4419;50.882;4.718;2022-07-17T10:11:49;24.70;34.50
13529;DHT22;4419;50.882;4.718;2022-07-17T10:14:15;24.70;34.00
13529;DHT22;4419;50.882;4.718;2022-07-17T10:16:41;24.60;33.20
13529;DHT22;4419;50.882;4.718;2022-07-17T10:19:23;24.60;32.30
13529;DHT22;4419;50.882;4.718;2022-07-17T10:21:56;24.70;32.30
13529;DHT22;4419;50.882;4.718;2022-07-17T10:24:21;24.90;32.30
13529;DHT22;4419;50.882;4.718;2022-07-17T10:26:47;24.90;31.70
13529;DHT22;4419;50.882;4.718;2022-07-17T10:31:53;25.30;30.70
13529;DHT22;4419;50.882;4.718;2022-07-17T10:34:21;25.30;30.00
13529;DHT22;4419;50.882;4.718;2022-07-17T10:36:47;25.30;30.00
13529;DHT22;4419;50.882;4.718;2022-07-17T10:39:13;25.50;30.00
13529;DHT22;4419;50.882;4.718;2022-07-17T10:41:39;25.60;29.90
13529;DHT22;4419;50.882;4.718;2022-07-17T10:44:05;25.30;29.50
13529;DHT22;4419;50.882;4.718;2022-07-17T10:46:30;25.40;31.00
13529;DHT22;4419;50.882;4.718;2022-07-17T10:48:56;25.70;30.70
13529;DHT22;4419;50.882;4.718;2022-07-17T10:51:25;26.00;30.30
13529;DHT22;4419;50.882;4.718;2022-07-17T10:53:52;25.60;30.00
13529;DHT22;4419;50.882;4.718;2022-07-17T10:56:21;25.80;29.90
13529;DHT22;4419;50.882;4.718;2022-07-17T10:58:46;26.20;29.40
13529;DHT22;4419;50.882;4.718;2022-07-17T11:06:07;26.10;29.30
13529;DHT22;4419;50.882;4.718;2022-07-17T11:08:40;26.10;29.30
13529;DHT22;4419;50.882;4.718;2022-07-17T11:11:06;26.20;28.70
13529;DHT22;4419;50.882;4.718;2022-07-17T11:13:31;26.50;28.60
13529;DHT22;4419;50.882;4.718;2022-07-17T11:15:57;26.60;28.00
13529;DHT22;4419;50.882;4.718;2022-07-17T11:18:22;26.80;27.60
13529;DHT22;4419;50.882;4.718;2022-07-17T11:20:53;26.50;28.30
13529;DHT22;4419;50.882;4.718;2022-07-17T11:23:20;26.60;27.10
13529;DHT22;4419;50.882;4.718;2022-07-17T11:25:53;26.70;26.70
13529;DHT22;4419;50.882;4.718;2022-07-17T11:30:57;27.10;25.70
13529;DHT22;4419;50.882;4.718;2022-07-17T11:33:23;27.10;25.40
13529;DHT22;4419;50.882;4.718;2022-07-17T11:35:48;27.20;25.70
13529;DHT22;4419;50.882;4.718;2022-07-17T11:38:14;27.00;26.20
13529;DHT22;4419;50.882;4.718;2022-07-17T11:40:47;27.30;26.50
13529;DHT22;4419;50.882;4.718;2022-07-17T11:43:12;27.40;26.80
13529;DHT22;4419;50.882;4.718;2022-07-17T11:45:38;27.40;26.30
13529;DHT22;4419;50.882;4.718;2022-07-17T11:48:05;27.40;26.00
13529;DHT22;4419;50.882;4.718;2022-07-17T11:50:31;27.10;26.50
13529;DHT22;4419;50.882;4.718;2022-07-17T11:53:00;27.10;27.00
13529;DHT22;4419;50.882;4.718;2022-07-17T11:55:34;27.30;26.80
13529;DHT22;4419;50.882;4.718;2022-07-17T11:58:00;27.50;26.80
13529;DHT22;4419;50.882;4.718;2022-07-17T12:00:25;27.80;26.10
13529;DHT22;4419;50.882;4.718;2022-07-17T12:02:58;27.70;25.50
13529;DHT22;4419;50.882;4.718;2022-07-17T12:05:27;27.80;26.00
13529;DHT22;4419;50.882;4.718;2022-07-17T12:07:53;27.60;25.70
13529;DHT22;4419;50.882;4.718;2022-07-17T12:10:20;27.80;26.20
13529;DHT22;4419;50.882;4.718;2022-07-17T12:12:54;27.80;25.80
13529;DHT22;4419;50.882;4.718;2022-07-17T12:15:21;27.90;25.90
13529;DHT22;4419;50.882;4.718;2022-07-17T12:17:47;28.20;25.80
13529;DHT22;4419;50.882;4.718;2022-07-17T12:20:12;28.30;25.70
13529;DHT22;4419;50.882;4.718;2022-07-17T12:22:42;28.40;25.40
13529;DHT22;4419;50.882;4.718;2022-07-17T12:25:08;28.20;25.30
13529;DHT22;4419;50.882;4.718;2022-07-17T12:27:33;28.00;26.00
13529;DHT22;4419;50.882;4.718;2022-07-17T12:29:59;28.20;25.30
13529;DHT22;4419;50.882;4.718;2022-07-17T12:32:24;28.30;25.10
13529;DHT22;4419;50.882;4.718;2022-07-17T12:34:50;28.30;25.10
13529;DHT22;4419;50.882;4.718;2022-07-17T12:37:16;28.40;24.10
13529;DHT22;4419;50.882;4.718;2022-07-17T12:39:46;28.60;24.10
13529;DHT22;4419;50.882;4.718;2022-07-17T12:42:15;28.80;23.60
13529;DHT22;4419;50.882;4.718;2022-07-17T12:44:41;28.60;23.40
13529;DHT22;4419;50.882;4.718;2022-07-17T12:47:10;28.60;23.10
13529;DHT22;4419;50.882;4.718;2022-07-17T12:49:36;28.70;23.40
13529;DHT22;4419;50.882;4.718;2022-07-17T12:52:02;28.70;23.30
13529;DHT22;4419;50.882;4.718;2022-07-17T12:54:28;28.70;23.10
13529;DHT22;4419;50.882;4.718;2022-07-17T12:56:54;28.70;22.70
13529;DHT22;4419;50.882;4.718;2022-07-17T12:59:19;28.60;23.30
13529;DHT22;4419;50.882;4.718;2022-07-17T13:01:46;28.70;22.50
13529;DHT22;4419;50.882;4.718;2022-07-17T13:04:12;28.80;23.20
13529;DHT22;4419;50.882;4.718;2022-07-17T13:06:38;29.00;23.40
13529;DHT22;4419;50.882;4.718;2022-07-17T13:09:03;29.30;22.20
13529;DHT22;4419;50.882;4.718;2022-07-17T13:11:29;29.20;22.30
13529;DHT22;4419;50.882;4.718;2022-07-17T13:13:55;29.20;22.20
13529;DHT22;4419;50.882;4.718;2022-07-17T13:16:20;29.60;22.50
13529;DHT22;4419;50.882;4.718;2022-07-17T13:18:46;29.70;21.90
13529;DHT22;4419;50.882;4.718;2022-07-17T13:21:12;29.60;21.80
13529;DHT22;4419;50.882;4.718;2022-07-17T13:23:37;29.40;21.30
13529;DHT22;4419;50.882;4.718;2022-07-17T13:26:03;29.20;22.30
13529;DHT22;4419;50.882;4.718;2022-07-17T13:28:29;29.20;21.10
13529;DHT22;4419;50.882;4.718;2022-07-17T13:30:55;29.00;22.20
13529;DHT22;4419;50.882;4.718;2022-07-17T13:33:22;29.00;21.80
13529;DHT22;4419;50.882;4.718;2022-07-17T13:35:47;29.10;22.10
13529;DHT22;4419;50.882;4.718;2022-07-17T13:38:13;29.30;21.70
13529;DHT22;4419;50.882;4.718;2022-07-17T13:40:38;29.40;22.00
13529;DHT22;4419;50.882;4.718;2022-07-17T13:43:04;29.70;20.80
13529;DHT22;4419;50.882;4.718;2022-07-17T13:45:30;29.80;21.30
13529;DHT22;4419;50.882;4.718;2022-07-17T13:47:56;29.90;20.90
13529;DHT22;4419;50.882;4.718;2022-07-17T13:50:22;30.10;20.60
13529;DHT22;4419;50.882;4.718;2022-07-17T13:52:47;29.90;20.70
13529;DHT22;4419;50.882;4.718;2022-07-17T13:55:13;29.80;20.30
13529;DHT22;4419;50.882;4.718;2022-07-17T13:57:39;29.60;21.20
13529;DHT22;4419;50.882;4.718;2022-07-17T14:00:05;29.80;21.00
13529;DHT22;4419;50.882;4.718;2022-07-17T14:02:31;29.90;21.20
13529;DHT22;4419;50.882;4.718;2022-07-17T14:04:56;30.10;20.90
13529;DHT22;4419;50.882;4.718;2022-07-17T14:07:22;30.30;20.00
13529;DHT22;4419;50.882;4.718;2022-07-17T14:09:48;30.40;20.10
13529;DHT22;4419;50.882;4.718;2022-07-17T14:12:13;30.30;19.70
13529;DHT22;4419;50.882;4.718;2022-07-17T14:14:39;29.90;21.10
13529;DHT22;4419;50.882;4.718;2022-07-17T14:17:04;30.00;20.40
13529;DHT22;4419;50.882;4.718;2022-07-17T14:19:30;30.00;20.30
13529;DHT22;4419;50.882;4.718;2022-07-17T14:21:56;30.10;19.00
13529;DHT22;4419;50.882;4.718;2022-07-17T14:24:22;30.10;19.00
13529;DHT22;4419;50.882;4.718;2022-07-17T14:26:47;30.30;19.30
13529;DHT22;4419;50.882;4.718;2022-07-17T14:29:13;30.30;18.80
13529;DHT22;4419;50.882;4.718;2022-07-17T14:31:39;30.30;18.50
13529;DHT22;4419;50.882;4.718;2022-07-17T14:34:05;30.10;19.00
13529;DHT22;4419;50.882;4.718;2022-07-17T14:36:30;29.80;19.70
13529;DHT22;4419;50.882;4.718;2022-07-17T14:38:56;29.90;20.80
13529;DHT22;4419;50.882;4.718;2022-07-17T14:41:22;30.30;19.90
13529;DHT22;4419;50.882;4.718;2022-07-17T14:43:48;30.50;20.10
13529;DHT22;4419;50.882;4.718;2022-07-17T14:46:14;30.30;20.40
13529;DHT22;4419;50.882;4.718;2022-07-17T14:48:39;30.10;20.00
13529;DHT22;4419;50.882;4.718;2022-07-17T14:51:05;30.20;20.10
13529;DHT22;4419;50.882;4.718;2022-07-17T14:53:31;30.20;20.50
13529;DHT22;4419;50.882;4.718;2022-07-17T14:55:56;30.40;19.40
13529;DHT22;4419;50.882;4.718;2022-07-17T14:58:22;30.50;19.40
13529;DHT22;4419;50.882;4.718;2022-07-17T15:00:47;29.90;19.90
13529;DHT22;4419;50.882;4.718;2022-07-17T15:03:13;30.20;20.70
13529;DHT22;4419;50.882;4.718;2022-07-17T15:05:38;30.40;19.00
13529;DHT22;4419;50.882;4.718;2022-07-17T15:08:04;30.40;18.50
13529;DHT22;4419;50.882;4.718;2022-07-17T15:10:30;30.60;18.50
13529;DHT22;4419;50.882;4.718;2022-07-17T15:12:55;30.60;20.20
13529;DHT22;4419;50.882;4.718;2022-07-17T15:15:21;30.70;19.10
13529;DHT22;4419;50.882;4.718;2022-07-17T15:17:47;30.70;19.30
13529;DHT22;4419;50.882;4.718;2022-07-17T15:20:12;30.70;18.30
13529;DHT22;4419;50.882;4.718;2022-07-17T15:22:38;30.90;18.70
13529;DHT22;4419;50.882;4.718;2022-07-17T15:25:04;31.10;18.30
13529;DHT22;4419;50.882;4.718;2022-07-17T15:27:29;30.70;17.80
13529;DHT22;4419;50.882;4.718;2022-07-17T15:29:55;30.50;18.60
13529;DHT22;4419;50.882;4.718;2022-07-17T15:32:21;30.60;18.60
13529;DHT22;4419;50.882;4.718;2022-07-17T15:34:46;30.60;17.30
13529;DHT22;4419;50.882;4.718;2022-07-17T15:37:12;30.40;17.40
13529;DHT22;4419;50.882;4.718;2022-07-17T15:39:38;30.30;16.90
13529;DHT22;4419;50.882;4.718;2022-07-17T15:42:03;30.30;17.70
13529;DHT22;4419;50.882;4.718;2022-07-17T15:44:29;30.20;17.70
13529;DHT22;4419;50.882;4.718;2022-07-17T15:46:55;30.00;18.80
13529;DHT22;4419;50.882;4.718;2022-07-17T15:49:20;30.10;17.90